createdAt,value
2018-02-06T00:01:04.750Z,-7.10
2018-02-06T00:04:14.622Z,-7.10
2018-02-06T00:07:24.520Z,-7.10
2018-02-06T00:10:34.502Z,-7.20
2018-02-06T00:13:45.037Z,-6.90
2018-02-06T00:16:55.255Z,-6.90
2018-02-06T00:20:05.993Z,-7.00
2018-02-06T00:23:16.344Z,-7.00
2018-02-06T00:26:26.136Z,-7.00
2018-02-06T00:29:35.923Z,-7.00
2018-02-06T00:32:46.800Z,-7.00
2018-02-06T00:35:57.293Z,-7.00
2018-02-06T00:39:07.469Z,-6.90
2018-02-06T00:42:17.386Z,-7.00
2018-02-06T00:45:27.895Z,-7.00
2018-02-06T00:48:38.992Z,-7.10
2018-02-06T00:51:50.041Z,-7.20
2018-02-06T00:55:00.286Z,-7.30
2018-02-06T00:58:10.426Z,-7.30
2018-02-06T01:01:20.383Z,-7.30
2018-02-06T01:04:30.298Z,-7.20
2018-02-06T01:07:40.213Z,-7.30
2018-02-06T01:10:50.887Z,-7.40
2018-02-06T01:14:01.238Z,-7.40
2018-02-06T01:17:11.205Z,-7.60
2018-02-06T01:20:21.872Z,-7.50
2018-02-06T01:23:32.518Z,-7.50
2018-02-06T01:26:43.045Z,-7.50
2018-02-06T01:29:52.929Z,-7.50
2018-02-06T01:33:03.146Z,-7.50
2018-02-06T01:36:14.194Z,-7.60
2018-02-06T01:39:24.080Z,-7.60
2018-02-06T01:42:34.503Z,-7.70
2018-02-06T01:45:44.776Z,-7.80
2018-02-06T01:48:54.750Z,-7.70
2018-02-06T01:52:04.443Z,-7.60
2018-02-06T01:55:14.654Z,-7.60
2018-02-06T01:58:24.595Z,-7.80
2018-02-06T02:01:34.981Z,-7.80
2018-02-06T02:04:44.705Z,-7.80
2018-02-06T02:07:54.900Z,-7.70
2018-02-06T02:11:04.821Z,-7.60
2018-02-06T02:14:14.781Z,-7.70
2018-02-06T02:17:24.609Z,-7.90
2018-02-06T02:20:34.568Z,-7.90
2018-02-06T02:23:44.578Z,-7.80
2018-02-06T02:26:54.371Z,-7.80
2018-02-06T02:30:05.265Z,-7.70
2018-02-06T02:33:15.442Z,-7.70
2018-02-06T02:36:25.382Z,-7.80
2018-02-06T02:39:37.093Z,-7.80
2018-02-06T04:40:06.150Z,-8.30
2018-02-06T04:43:15.882Z,-8.30
2018-02-06T04:46:26.609Z,-8.20
2018-02-06T04:49:36.674Z,-8.20
2018-02-06T04:52:46.587Z,-8.30
2018-02-06T04:55:56.469Z,-8.20
2018-02-06T04:59:06.655Z,-8.30
2018-02-06T05:02:16.622Z,-8.40
2018-02-06T05:05:27.160Z,-8.50
2018-02-06T05:08:36.900Z,-8.50
2018-02-06T05:11:46.866Z,-8.60
2018-02-06T05:14:57.172Z,-8.50
2018-02-06T05:18:07.363Z,-8.40
2018-02-06T05:21:17.409Z,-8.40
2018-02-06T05:24:27.436Z,-8.30
2018-02-06T05:27:37.557Z,-8.40
2018-02-06T05:30:47.657Z,-8.30
2018-02-06T05:33:57.654Z,-8.40
2018-02-06T05:37:07.652Z,-8.50
2018-02-06T05:40:17.613Z,-8.50
2018-02-06T05:43:27.995Z,-8.40
2018-02-06T05:46:38.108Z,-8.40
2018-02-06T05:49:48.215Z,-8.40
2018-02-06T05:52:59.181Z,-8.40
2018-02-06T05:56:09.657Z,-8.40
2018-02-06T05:59:20.549Z,-8.40
2018-02-06T06:02:30.888Z,-8.60
2018-02-06T06:05:42.248Z,-8.70
2018-02-06T06:08:52.312Z,-8.70
2018-02-06T06:12:02.173Z,-8.70
2018-02-06T06:15:12.315Z,-8.60
2018-02-06T06:18:22.550Z,-8.60
2018-02-06T06:21:32.498Z,-8.50
2018-02-06T06:24:42.568Z,-8.50
2018-02-06T06:27:52.689Z,-8.50
2018-02-06T06:31:04.058Z,-8.60
2018-02-06T06:34:14.426Z,-8.60
2018-02-06T06:37:24.303Z,-8.60
2018-02-06T06:40:34.307Z,-8.60
2018-02-06T06:43:44.243Z,-8.50
2018-02-06T06:46:54.227Z,-8.50
2018-02-06T06:50:04.135Z,-8.50
2018-02-06T06:53:13.962Z,-8.50
2018-02-06T06:56:24.618Z,-8.50
2018-02-06T06:59:34.834Z,-8.50
2018-02-06T07:02:44.899Z,-8.50
2018-02-06T07:05:55.358Z,-8.50
2018-02-06T07:09:05.018Z,-8.50
2018-02-06T07:12:15.062Z,-8.50
2018-02-06T07:15:25.146Z,-8.50
2018-02-06T07:18:35.249Z,-8.50
2018-02-06T07:21:45.113Z,-8.50
2018-02-06T07:24:54.989Z,-8.40
2018-02-06T07:28:04.681Z,-8.40
2018-02-06T07:31:14.774Z,-8.30
2018-02-06T07:34:24.721Z,-8.30
2018-02-06T07:37:34.846Z,-8.30
2018-02-06T07:40:47.108Z,-8.20
2018-02-06T07:43:57.990Z,-8.10
2018-02-06T07:47:08.029Z,-8.10
2018-02-06T07:50:17.937Z,-8.00
2018-02-06T07:53:27.634Z,-7.90
2018-02-06T07:56:38.169Z,-7.80
2018-02-06T07:59:49.565Z,-7.70
2018-02-06T08:03:00.039Z,-7.70
2018-02-06T08:06:09.865Z,-7.70
2018-02-06T08:09:19.923Z,-7.60
2018-02-06T08:12:30.169Z,-7.50
2018-02-06T08:15:40.047Z,-7.50
2018-02-06T08:18:50.731Z,-7.40
2018-02-06T08:22:00.386Z,-7.30
2018-02-06T08:25:10.778Z,-7.20
2018-02-06T08:28:21.210Z,-7.10
2018-02-06T08:31:31.845Z,-7.00
2018-02-06T08:34:41.849Z,-6.90
2018-02-06T08:37:51.777Z,-6.80
2018-02-06T08:41:01.772Z,-6.80
2018-02-06T08:44:11.940Z,-6.70
2018-02-06T08:47:22.287Z,-6.60
2018-02-06T08:50:33.048Z,-6.40
2018-02-06T08:53:43.640Z,-6.40
2018-02-06T08:56:54.502Z,-6.20
2018-02-06T09:00:05.012Z,-6.20
2018-02-06T09:03:14.870Z,-6.10
2018-02-06T09:06:24.907Z,-6.00
2018-02-06T09:09:35.704Z,-5.90
2018-02-06T09:12:46.367Z,-5.70
2018-02-06T09:15:56.629Z,-5.70
2018-02-06T09:19:06.846Z,-5.60
2018-02-06T09:22:17.071Z,-5.50
2018-02-06T09:25:27.013Z,-5.40
2018-02-06T09:28:36.940Z,-5.40
2018-02-06T09:31:46.724Z,-5.20
2018-02-06T09:34:56.693Z,-5.20
2018-02-06T09:38:07.018Z,-5.10
2018-02-06T09:41:17.161Z,-5.00
2018-02-06T09:44:27.195Z,-4.90
2018-02-06T09:47:37.218Z,-4.80
2018-02-06T09:50:47.291Z,-4.80
2018-02-06T09:53:57.386Z,-4.70
2018-02-06T09:57:07.403Z,-4.60
2018-02-06T10:00:17.444Z,-4.40
2018-02-06T10:03:27.591Z,-4.20
2018-02-06T10:06:37.563Z,-4.10
2018-02-06T10:09:47.508Z,-3.90
2018-02-06T10:12:57.866Z,-3.80
2018-02-06T10:16:07.897Z,-3.60
2018-02-06T10:19:18.459Z,-3.40
2018-02-06T10:22:28.924Z,-3.30
2018-02-06T10:25:39.042Z,-3.20
2018-02-06T10:28:48.811Z,-3.00
2018-02-06T10:31:59.108Z,-2.90
2018-02-06T10:35:09.222Z,-2.80
2018-02-06T10:38:19.253Z,-2.70
2018-02-06T10:41:28.929Z,-2.60
2018-02-06T10:44:39.707Z,-2.50
2018-02-06T10:47:49.957Z,-2.50
2018-02-06T10:51:00.291Z,-2.30
2018-02-06T10:54:10.495Z,-2.20
2018-02-06T10:57:20.530Z,-2.20
2018-02-06T11:00:30.566Z,-2.10
2018-02-06T11:03:41.502Z,-2.00
2018-02-06T11:06:52.030Z,-2.00
2018-02-06T11:10:02.303Z,-1.90
2018-02-06T11:13:12.821Z,-1.80
2018-02-06T11:16:22.599Z,-1.70
2018-02-06T11:19:32.924Z,-1.70
2018-02-06T11:22:43.198Z,-1.60
2018-02-06T11:25:53.151Z,-1.50
2018-02-06T11:29:03.098Z,-1.40
2018-02-06T11:32:13.118Z,-1.40
2018-02-06T11:35:23.129Z,-1.40
2018-02-06T11:38:33.211Z,-1.30
2018-02-06T11:41:46.574Z,-1.30
2018-02-06T11:45:19.581Z,-1.10
2018-02-06T11:48:29.392Z,-1.10
2018-02-06T11:51:39.187Z,-1.00
2018-02-06T11:54:50.114Z,-1.00
2018-02-06T11:58:00.697Z,-1.00
2018-02-06T12:01:19.370Z,-0.90
2018-02-06T12:04:29.956Z,-0.70
2018-02-06T12:07:40.407Z,-0.80
2018-02-06T12:10:50.414Z,-0.70
2018-02-06T12:14:00.506Z,-0.60
2018-02-06T12:17:10.919Z,-0.70
2018-02-06T12:20:21.468Z,-0.70
2018-02-06T12:23:31.470Z,-0.80
2018-02-06T12:26:41.370Z,-0.80
2018-02-06T12:29:51.527Z,-0.80
2018-02-06T12:33:02.064Z,-0.80
2018-02-06T12:36:11.924Z,-0.80
2018-02-06T12:39:22.052Z,-0.80
2018-02-06T12:42:31.996Z,-0.70
2018-02-06T12:45:41.710Z,-0.50
2018-02-06T12:48:53.399Z,-0.60
2018-02-06T12:52:03.627Z,-0.60
2018-02-06T12:55:14.836Z,-0.60
2018-02-06T12:58:24.541Z,-0.60
2018-02-06T13:01:34.433Z,-0.50
2018-02-06T13:04:46.486Z,-0.40
2018-02-06T13:07:56.446Z,-0.40
2018-02-06T13:11:07.222Z,-0.40
2018-02-06T13:14:17.487Z,-0.30
2018-02-06T13:17:27.282Z,-0.30
2018-02-06T13:20:37.063Z,-0.30
2018-02-06T13:23:47.835Z,-0.30
2018-02-06T13:26:59.166Z,-0.20
2018-02-06T13:33:20.346Z,-0.30
2018-02-06T13:36:30.305Z,-0.20
2018-02-06T13:39:41.162Z,-0.20
2018-02-06T13:42:51.629Z,-0.20
2018-02-06T13:46:01.693Z,-0.10
2018-02-06T13:49:11.819Z,-0.10
2018-02-06T13:52:21.870Z,-0.10
2018-02-06T13:55:31.788Z,0.00
2018-02-06T13:58:41.820Z,0.00
2018-02-06T14:01:53.243Z,0.00
2018-02-06T14:05:03.478Z,0.00
2018-02-06T14:08:13.572Z,0.10
2018-02-06T14:11:23.526Z,0.20
2018-02-06T14:14:33.745Z,0.20
2018-02-06T14:17:43.936Z,0.20
2018-02-06T14:20:54.237Z,0.30
2018-02-06T14:24:04.858Z,0.50
2018-02-06T14:27:15.434Z,0.50
2018-02-06T14:30:26.055Z,0.80
2018-02-06T14:33:35.871Z,1.10
2018-02-06T14:36:46.343Z,1.40
2018-02-06T14:39:56.310Z,1.70
2018-02-06T14:43:06.060Z,1.90
2018-02-06T14:46:15.912Z,1.80
2018-02-06T14:49:25.757Z,1.60
2018-02-06T14:52:35.594Z,1.10
2018-02-06T14:55:45.773Z,1.10
2018-02-06T14:58:56.079Z,1.10
2018-02-06T15:02:06.232Z,1.10
2018-02-06T15:05:16.393Z,1.00
2018-02-06T15:08:27.667Z,0.40
2018-02-06T15:11:37.963Z,0.40
2018-02-06T15:14:47.851Z,0.20
2018-02-06T15:17:58.609Z,-0.20
2018-02-06T15:21:08.956Z,-0.20
2018-02-06T15:24:18.996Z,-0.30
2018-02-06T15:27:28.867Z,-0.30
2018-02-06T15:30:40.186Z,-0.20
2018-02-06T15:33:51.638Z,-0.20
2018-02-06T15:37:02.637Z,-0.20
2018-02-06T15:40:12.294Z,-0.40
2018-02-06T15:43:22.557Z,-0.50
2018-02-06T15:46:33.335Z,-0.40
2018-02-06T15:49:43.751Z,-0.50
2018-02-06T15:56:05.571Z,-0.90
2018-02-06T15:59:16.441Z,-0.90
2018-02-06T16:02:26.828Z,-1.00
2018-02-06T16:05:36.836Z,-1.20
2018-02-06T16:08:46.792Z,-1.10
2018-02-06T16:11:56.675Z,-0.90
2018-02-06T16:15:07.379Z,-0.90
2018-02-06T16:18:17.617Z,-0.80
2018-02-06T16:21:28.223Z,-0.90
2018-02-06T16:27:49.506Z,-1.00
2018-02-06T16:30:59.628Z,-1.00
2018-02-06T16:34:10.676Z,-1.10
2018-02-06T16:37:20.543Z,-1.10
2018-02-06T16:40:30.714Z,-1.10
2018-02-06T16:43:40.784Z,-1.30
2018-02-06T16:46:50.689Z,-1.30
2018-02-06T16:50:01.069Z,-1.50
2018-02-06T16:53:12.048Z,-1.90
2018-02-06T16:56:22.738Z,-1.90
2018-02-06T16:59:34.023Z,-2.10
2018-02-06T17:02:44.256Z,-2.10
2018-02-06T17:05:54.573Z,-2.20
2018-02-06T17:09:03.693Z,-2.20
2018-02-06T17:12:13.458Z,-2.40
2018-02-06T17:15:24.424Z,-2.40
2018-02-06T17:18:34.769Z,-2.40
2018-02-06T17:21:44.695Z,-2.50
2018-02-06T17:24:54.658Z,-2.50
2018-02-06T17:28:04.067Z,-2.50
2018-02-06T17:31:14.115Z,-2.50
2018-02-06T17:34:23.825Z,-2.50
2018-02-06T17:37:33.798Z,-2.60
2018-02-06T17:40:43.795Z,-2.50
2018-02-06T17:43:53.757Z,-2.50
2018-02-06T17:47:03.783Z,-2.50
2018-02-06T17:50:14.047Z,-2.40
2018-02-06T17:53:24.265Z,-2.40
2018-02-06T17:56:34.459Z,-2.50
2018-02-06T17:59:44.500Z,-2.50
2018-02-06T18:02:54.867Z,-2.50
2018-02-06T18:06:05.089Z,-2.30
2018-02-06T18:09:14.808Z,-2.30
2018-02-06T18:12:25.186Z,-2.20
2018-02-06T18:15:35.191Z,-2.20
2018-02-06T18:18:44.975Z,-2.40
2018-02-06T18:21:55.023Z,-2.50
2018-02-06T18:25:05.419Z,-2.40
2018-02-06T18:28:15.564Z,-2.50
2018-02-06T18:31:25.529Z,-2.70
2018-02-06T18:34:36.040Z,-2.70
2018-02-06T18:37:47.223Z,-2.80
2018-02-06T18:40:57.242Z,-2.90
2018-02-06T18:44:07.359Z,-2.80
2018-02-06T18:47:17.594Z,-2.80
2018-02-06T18:50:28.387Z,-2.60
2018-02-06T18:53:38.652Z,-2.70
2018-02-06T18:56:48.715Z,-2.80
2018-02-06T18:59:59.451Z,-2.80
2018-02-06T19:03:09.543Z,-2.90
2018-02-06T19:06:19.691Z,-2.80
2018-02-06T19:09:29.993Z,-2.70
2018-02-06T19:12:40.449Z,-2.60
2018-02-06T19:15:50.748Z,-2.60
2018-02-06T19:19:00.704Z,-2.60
2018-02-06T19:22:11.344Z,-2.50
2018-02-06T19:25:21.432Z,-2.50
2018-02-06T19:28:32.142Z,-2.50
2018-02-06T19:31:42.219Z,-2.50
2018-02-06T19:34:52.119Z,-2.50
2018-02-06T19:38:02.314Z,-2.50
2018-02-06T19:41:13.915Z,-2.50
2018-02-06T19:44:24.180Z,-2.50
2018-02-06T19:47:34.069Z,-2.60
2018-02-06T19:50:43.923Z,-2.60
2018-02-06T19:53:53.977Z,-2.70
2018-02-06T19:57:03.957Z,-2.70
2018-02-06T20:00:14.068Z,-2.70
2018-02-06T20:03:24.377Z,-2.70
2018-02-06T20:06:34.533Z,-2.80
2018-02-06T20:09:44.290Z,-2.80
2018-02-06T20:12:54.286Z,-2.80
2018-02-06T20:16:04.772Z,-2.90
2018-02-06T20:19:15.479Z,-3.00
2018-02-06T20:22:25.816Z,-3.10
2018-02-06T20:25:35.819Z,-3.00
2018-02-06T20:28:46.938Z,-3.10
2018-02-06T20:31:58.803Z,-3.10
2018-02-06T20:35:10.345Z,-3.00
2018-02-06T20:38:20.830Z,-3.10
2018-02-06T20:41:30.814Z,-3.10
2018-02-06T20:44:40.004Z,-3.20
2018-02-06T20:47:50.442Z,-3.20
2018-02-06T20:51:00.299Z,-3.20
2018-02-06T20:54:10.448Z,-3.30
2018-02-06T20:57:20.616Z,-3.30
2018-02-06T21:00:32.871Z,-3.40
2018-02-06T21:03:44.065Z,-3.40
2018-02-06T21:06:54.320Z,-3.50
2018-02-06T21:10:03.864Z,-3.50
2018-02-06T21:13:14.407Z,-3.50
2018-02-06T21:16:24.191Z,-3.40
2018-02-06T21:19:34.210Z,-3.50
2018-02-06T21:22:44.910Z,-3.60
2018-02-06T21:25:54.835Z,-3.60
2018-02-06T21:29:04.685Z,-3.60
2018-02-06T21:32:14.635Z,-3.70
2018-02-06T21:35:24.408Z,-3.70
2018-02-06T21:38:34.362Z,-3.90
2018-02-06T21:41:44.261Z,-3.90
2018-02-06T21:44:54.322Z,-3.90
2018-02-06T21:48:04.412Z,-4.10
2018-02-06T21:51:14.510Z,-4.20
2018-02-06T21:54:24.589Z,-4.30
2018-02-06T21:57:34.922Z,-4.40
2018-02-06T22:00:44.795Z,-4.30
2018-02-06T22:03:54.452Z,-4.40
2018-02-06T22:07:04.313Z,-4.50
2018-02-06T22:10:15.474Z,-4.40
2018-02-06T22:13:26.103Z,-4.50
2018-02-06T22:16:37.390Z,-4.70
2018-02-06T22:19:47.445Z,-4.70
2018-02-06T22:22:57.466Z,-4.70
2018-02-06T22:26:07.550Z,-4.60
2018-02-06T22:29:17.563Z,-4.50
2018-02-06T22:32:27.666Z,-4.70
2018-02-06T22:35:41.155Z,-4.70
2018-02-06T22:38:51.389Z,-4.70
2018-02-06T22:42:01.180Z,-4.70
2018-02-06T22:45:11.997Z,-4.80
2018-02-06T22:48:22.390Z,-4.80
2018-02-06T22:51:32.396Z,-5.00
2018-02-06T22:54:43.119Z,-4.90
2018-02-06T22:57:53.993Z,-5.00
2018-02-06T23:01:04.915Z,-5.00
2018-02-06T23:04:15.255Z,-5.00
2018-02-06T23:07:25.266Z,-5.10
2018-02-06T23:10:35.276Z,-5.10
2018-02-06T23:13:45.194Z,-5.20
2018-02-06T23:16:55.324Z,-5.20
2018-02-06T23:20:05.165Z,-5.50
2018-02-06T23:23:15.833Z,-5.40
2018-02-06T23:26:25.803Z,-5.40
2018-02-06T23:29:36.202Z,-5.60
2018-02-06T23:32:46.178Z,-5.60
2018-02-06T23:35:56.284Z,-5.50
2018-02-06T23:39:06.269Z,-5.40
2018-02-06T23:42:17.184Z,-5.60
2018-02-06T23:45:27.527Z,-5.60
2018-02-06T23:48:37.685Z,-5.50
2018-02-06T23:51:48.244Z,-5.50
2018-02-06T23:54:58.135Z,-5.50
2018-02-06T23:58:08.106Z,-5.50
